createdAt,value
2022-08-05T00:00:17.401Z,2.45
2022-08-05T00:02:50.725Z,2.22
2022-08-05T00:06:01.646Z,2.67
2022-08-05T00:08:32.406Z,2.30
2022-08-05T00:11:00.829Z,2.50
2022-08-05T00:13:39.428Z,2.80
2022-08-05T00:16:12.514Z,3.13
2022-08-05T00:18:42.275Z,2.88
2022-08-05T00:21:10.717Z,2.63
2022-08-05T00:23:45.920Z,2.90
2022-08-05T00:26:16.505Z,3.00
2022-08-05T00:28:46.020Z,2.83
2022-08-05T00:31:14.709Z,2.92
2022-08-05T00:34:53.308Z,3.10
2022-08-05T00:37:09.860Z,2.65
2022-08-05T00:39:18.602Z,3.30
2022-08-05T00:41:55.049Z,3.10
2022-08-05T00:44:30.746Z,2.95
2022-08-05T00:47:01.608Z,3.00
2022-08-05T00:49:32.314Z,2.93
2022-08-05T00:52:00.918Z,3.33
2022-08-05T00:54:30.154Z,2.78
2022-08-05T00:56:58.424Z,2.90
2022-08-05T00:59:42.054Z,3.20
2022-08-05T01:02:13.007Z,2.72
2022-08-05T01:04:44.758Z,2.85
2022-08-05T01:07:18.411Z,2.60
2022-08-05T01:09:46.640Z,2.95
2022-08-05T01:12:29.915Z,3.13
2022-08-05T01:15:05.260Z,3.05
2022-08-05T01:17:43.848Z,3.63
2022-08-05T01:20:24.305Z,4.60
2022-08-05T01:23:15.079Z,4.93
2022-08-05T01:26:01.425Z,4.32
2022-08-05T01:28:36.349Z,4.15
2022-08-05T01:31:11.481Z,4.03
2022-08-05T01:33:49.165Z,4.38
2022-08-05T01:36:28.112Z,4.53
2022-08-05T01:39:00.216Z,3.92
2022-08-05T01:41:33.955Z,4.40
2022-08-05T01:44:10.003Z,4.30
2022-08-05T01:46:41.577Z,4.47
2022-08-05T01:49:24.119Z,4.10
2022-08-05T01:51:58.241Z,4.75
2022-08-05T01:54:31.421Z,3.67
2022-08-05T01:58:11.162Z,3.83
2022-08-05T01:59:53.639Z,3.80
2022-08-05T02:02:28.085Z,3.90
2022-08-05T02:04:59.274Z,3.67
2022-08-05T02:07:30.221Z,3.67
2022-08-05T02:09:59.283Z,3.80
2022-08-05T02:12:38.288Z,3.45
2022-08-05T02:15:13.747Z,3.25
2022-08-05T02:18:30.888Z,3.35
2022-08-05T02:20:47.184Z,3.25
2022-08-05T02:23:18.612Z,3.53
2022-08-05T02:25:49.006Z,2.88
2022-08-05T02:28:28.405Z,3.30
2022-08-05T02:31:05.937Z,3.03
2022-08-05T02:33:39.312Z,3.70
2022-08-05T02:36:13.496Z,3.00
2022-08-05T02:38:52.915Z,2.85
2022-08-05T02:41:29.003Z,2.80
2022-08-05T02:44:13.251Z,3.10
2022-08-05T02:46:58.672Z,3.40
2022-08-05T02:49:36.615Z,2.90
2022-08-05T02:52:11.558Z,3.10
2022-08-05T02:54:50.671Z,3.20
2022-08-05T02:58:10.222Z,2.85
2022-08-05T03:00:14.098Z,2.45
2022-08-05T03:02:46.164Z,2.67
2022-08-05T03:05:16.452Z,2.90
2022-08-05T03:08:04.441Z,2.60
2022-08-05T03:10:33.282Z,3.00
2022-08-05T03:15:28.341Z,2.95
2022-08-05T03:17:59.398Z,2.75
2022-08-05T03:20:27.528Z,3.10
2022-08-05T03:22:57.542Z,2.90
2022-08-05T03:25:33.476Z,2.80
2022-08-05T03:28:18.780Z,2.60
2022-08-05T03:30:49.542Z,3.03
2022-08-05T03:33:20.654Z,2.72
2022-08-05T03:35:51.741Z,2.25
2022-08-05T03:38:32.788Z,2.83
2022-08-05T03:41:08.267Z,2.78
2022-08-05T03:44:09.024Z,3.00
2022-08-05T03:46:29.923Z,3.38
2022-08-05T03:49:02.244Z,3.20
2022-08-05T03:52:39.293Z,2.95
2022-08-05T03:55:50.505Z,2.97
2022-08-05T03:57:28.953Z,2.65
2022-08-05T04:00:01.541Z,2.40
2022-08-05T04:02:38.888Z,2.70
2022-08-05T04:05:23.141Z,2.78
2022-08-05T04:07:58.558Z,3.00
2022-08-05T04:10:32.092Z,2.92
2022-08-05T04:13:04.347Z,3.13
2022-08-05T04:15:32.946Z,2.85
2022-08-05T04:18:03.804Z,3.00
2022-08-05T04:20:36.532Z,2.85
2022-08-05T04:23:04.543Z,3.17
2022-08-05T04:25:58.027Z,3.08
2022-08-05T04:28:30.653Z,2.90
2022-08-05T04:31:00.791Z,3.00
2022-08-05T04:33:54.525Z,2.90
2022-08-05T04:36:46.121Z,2.83
2022-08-05T04:39:07.634Z,3.60
2022-08-05T04:41:37.761Z,3.05
2022-08-05T04:44:09.318Z,3.40
2022-08-05T04:46:38.801Z,2.47
2022-08-05T04:49:12.304Z,2.83
2022-08-05T04:51:44.788Z,2.80
2022-08-05T04:54:14.577Z,3.25
2022-08-05T04:56:43.630Z,3.17
2022-08-05T04:59:21.524Z,2.97
2022-08-05T05:02:07.330Z,3.38
2022-08-05T05:04:44.098Z,2.90
2022-08-05T05:07:18.210Z,2.83
2022-08-05T05:09:52.327Z,2.95
2022-08-05T05:12:22.245Z,3.03
2022-08-05T05:14:51.262Z,3.10
2022-08-05T05:17:23.712Z,3.08
2022-08-05T05:19:56.681Z,3.10
2022-08-05T05:22:26.969Z,3.03
2022-08-05T05:24:58.513Z,3.03
2022-08-05T05:27:41.563Z,3.53
2022-08-05T05:30:31.509Z,3.20
2022-08-05T05:33:09.106Z,3.05
2022-08-05T05:35:45.297Z,4.00
2022-08-05T05:38:14.971Z,4.20
2022-08-05T05:40:51.864Z,3.50
2022-08-05T05:43:54.841Z,2.92
2022-08-05T05:46:17.442Z,3.13
2022-08-05T05:48:48.929Z,3.30
2022-08-05T05:51:25.707Z,3.00
2022-08-05T05:53:59.737Z,2.83
2022-08-05T05:56:32.883Z,2.83
2022-08-05T05:59:05.455Z,3.30
2022-08-05T06:01:37.865Z,3.33
2022-08-05T06:04:11.258Z,2.88
2022-08-05T06:06:41.988Z,3.05
2022-08-05T06:09:17.052Z,3.53
2022-08-05T06:12:01.204Z,3.15
2022-08-05T06:14:30.543Z,3.20
2022-08-05T06:16:58.599Z,2.90
2022-08-05T06:19:35.233Z,3.20
2022-08-05T06:22:03.994Z,2.60
2022-08-05T06:24:34.054Z,2.90
2022-08-05T06:27:03.941Z,3.08
2022-08-05T06:29:49.556Z,2.58
2022-08-05T06:32:26.111Z,2.67
2022-08-05T06:34:58.602Z,3.03
2022-08-05T06:37:57.895Z,2.30
2022-08-05T06:40:18.434Z,2.70
2022-08-05T06:45:44.379Z,2.92
2022-08-05T06:48:36.901Z,2.65
2022-08-05T06:50:58.669Z,3.05
2022-08-05T06:53:29.173Z,2.80
2022-08-05T06:55:59.710Z,2.70
2022-08-05T06:58:29.938Z,2.70
2022-08-05T07:01:04.269Z,2.80
2022-08-05T07:03:33.349Z,2.22
2022-08-05T07:06:05.886Z,2.60
2022-08-05T07:08:47.783Z,2.88
2022-08-05T07:11:22.172Z,2.47
2022-08-05T07:14:07.969Z,2.47
2022-08-05T07:17:59.255Z,2.30
2022-08-05T07:22:35.539Z,2.20
2022-08-05T07:25:22.995Z,2.75
2022-08-05T07:27:58.527Z,3.10
2022-08-05T07:30:33.402Z,3.67
2022-08-05T07:33:08.811Z,3.28
2022-08-05T07:36:01.557Z,2.88
2022-08-05T07:38:34.489Z,2.70
2022-08-05T07:42:08.121Z,2.88
2022-08-05T07:43:56.305Z,2.50
2022-08-05T07:46:26.597Z,2.47
2022-08-05T07:49:03.302Z,2.80
2022-08-05T07:51:37.159Z,2.50
2022-08-05T07:54:09.996Z,2.67
2022-08-05T07:57:00.183Z,2.90
2022-08-05T07:59:38.342Z,2.72
2022-08-05T08:02:15.768Z,2.20
2022-08-05T08:04:47.210Z,2.20
2022-08-05T08:07:15.676Z,2.30
2022-08-05T08:09:44.015Z,2.75
2022-08-05T08:12:37.377Z,2.92
2022-08-05T08:15:03.514Z,2.83
2022-08-05T08:17:32.837Z,2.72
2022-08-05T08:20:43.244Z,2.40
2022-08-05T08:22:55.814Z,2.47
2022-08-05T08:25:27.041Z,2.50
2022-08-05T08:28:18.682Z,2.42
2022-08-05T08:31:02.029Z,2.60
2022-08-05T08:33:37.578Z,2.25
2022-08-05T08:38:56.938Z,1.88
2022-08-05T08:41:51.648Z,2.45
2022-08-05T08:45:18.028Z,2.42
2022-08-05T08:47:21.801Z,1.80
2022-08-05T08:50:23.391Z,1.98
2022-08-05T08:52:51.648Z,1.90
2022-08-05T08:55:32.007Z,1.98
2022-08-05T08:58:12.860Z,1.90
2022-08-05T09:00:42.824Z,1.67
2022-08-05T09:03:16.257Z,2.28
2022-08-05T09:06:07.787Z,2.20
2022-08-05T09:08:37.244Z,2.20
2022-08-05T09:11:08.690Z,1.90
2022-08-05T09:14:09.804Z,1.70
2022-08-05T09:16:28.737Z,1.90
2022-08-05T09:18:59.514Z,1.88
2022-08-05T09:22:22.475Z,1.83
2022-08-05T09:24:16.751Z,2.20
2022-08-05T09:26:48.536Z,2.20
2022-08-05T09:29:20.282Z,2.00
2022-08-05T09:32:41.660Z,1.85
2022-08-05T09:34:55.281Z,1.80
2022-08-05T09:38:12.611Z,1.83
2022-08-05T09:43:01.164Z,2.25
2022-08-05T09:46:07.238Z,1.67
2022-08-05T09:48:30.934Z,1.83
2022-08-05T09:51:02.499Z,2.20
2022-08-05T09:53:54.477Z,1.83
2022-08-05T09:56:26.369Z,1.45
2022-08-05T09:58:58.805Z,2.03
2022-08-05T10:01:32.530Z,1.80
2022-08-05T10:04:04.560Z,1.70
2022-08-05T10:06:49.969Z,1.85
2022-08-05T10:09:28.012Z,2.25
2022-08-05T10:12:30.785Z,2.25
2022-08-05T10:15:17.005Z,1.98
2022-08-05T10:18:11.103Z,2.22
2022-08-05T10:20:42.801Z,1.92
2022-08-05T10:23:22.136Z,2.80
2022-08-05T10:26:06.966Z,2.00
2022-08-05T10:28:36.538Z,2.00
2022-08-05T10:32:49.465Z,2.47
2022-08-05T10:33:54.278Z,2.20
2022-08-05T10:36:23.642Z,2.08
2022-08-05T10:39:10.159Z,2.13
2022-08-05T10:41:47.353Z,2.50
2022-08-05T10:44:20.657Z,2.20
2022-08-05T10:49:27.435Z,2.80
2022-08-05T10:52:05.071Z,2.42
2022-08-05T10:55:04.794Z,1.90
2022-08-05T10:57:33.855Z,2.35
2022-08-05T11:00:20.519Z,2.25
2022-08-05T11:03:24.676Z,2.63
2022-08-05T11:06:15.381Z,2.35
2022-08-05T11:09:17.521Z,2.75
2022-08-05T11:11:52.611Z,1.90
2022-08-05T11:14:49.515Z,1.85
2022-08-05T11:20:44.169Z,1.83
2022-08-05T11:24:04.678Z,1.98
2022-08-05T11:26:28.750Z,2.05
2022-08-05T11:29:12.633Z,2.25
2022-08-05T11:31:57.769Z,2.00
2022-08-05T11:34:47.459Z,2.20
2022-08-05T11:38:29.526Z,1.90
2022-08-05T11:41:15.471Z,2.47
2022-08-05T11:44:06.418Z,2.28
2022-08-05T11:46:58.377Z,2.33
2022-08-05T11:49:27.145Z,2.30
2022-08-05T11:51:57.678Z,2.00
2022-08-05T11:54:32.690Z,2.58
2022-08-05T11:57:24.522Z,2.25
2022-08-05T11:59:52.224Z,2.17
2022-08-05T12:02:30.090Z,2.20
2022-08-05T12:05:01.472Z,2.28
2022-08-05T12:08:07.374Z,2.08
2022-08-05T12:10:43.828Z,2.25
2022-08-05T12:13:15.839Z,2.08
2022-08-05T12:15:49.670Z,2.83
2022-08-05T12:18:33.089Z,2.00
2022-08-05T12:21:11.301Z,2.30
2022-08-05T12:23:43.089Z,1.83
2022-08-05T12:26:11.527Z,2.35
2022-08-05T12:28:39.720Z,2.05
2022-08-05T12:31:07.711Z,2.13
2022-08-05T12:33:38.820Z,1.80
2022-08-05T12:36:09.286Z,1.77
2022-08-05T12:38:40.158Z,2.00
2022-08-05T12:41:13.101Z,2.10
2022-08-05T12:43:53.080Z,1.73
2022-08-05T12:46:29.462Z,1.75
2022-08-05T12:49:01.421Z,2.00
2022-08-05T12:52:12.921Z,2.13
2022-08-05T12:54:37.238Z,1.85
2022-08-05T12:57:09.237Z,1.35
2022-08-05T12:59:46.602Z,1.70
2022-08-05T13:02:37.309Z,2.00
2022-08-05T13:05:12.678Z,1.73
2022-08-05T13:08:01.019Z,1.85
2022-08-05T13:10:33.633Z,1.80
2022-08-05T13:15:41.224Z,2.05
2022-08-05T13:18:19.642Z,1.90
2022-08-05T13:20:50.364Z,1.85
2022-08-05T13:23:22.482Z,2.10
2022-08-05T13:25:59.310Z,1.80
2022-08-05T13:28:27.967Z,1.60
2022-08-05T13:30:57.132Z,1.90
2022-08-05T13:34:23.085Z,1.67
2022-08-05T13:36:14.788Z,1.83
2022-08-05T13:38:43.345Z,1.83
2022-08-05T13:41:11.799Z,2.33
2022-08-05T13:43:44.220Z,1.90
2022-08-05T13:46:14.891Z,1.70
2022-08-05T13:49:00.155Z,1.70
2022-08-05T13:51:40.128Z,1.83
2022-08-05T13:54:11.774Z,1.83
2022-08-05T13:56:50.333Z,1.85
2022-08-05T13:59:21.030Z,1.90
2022-08-05T14:01:59.005Z,1.75
2022-08-05T14:04:51.089Z,1.98
2022-08-05T14:07:26.073Z,2.08
2022-08-05T14:10:13.875Z,1.90
2022-08-05T14:12:48.746Z,1.65
2022-08-05T14:16:07.234Z,2.20
2022-08-05T14:18:15.092Z,2.13
2022-08-05T14:20:47.280Z,2.22
2022-08-05T14:23:24.704Z,2.15
2022-08-05T14:25:54.229Z,2.30
2022-08-05T14:28:27.021Z,2.05
2022-08-05T14:30:55.654Z,2.60
2022-08-05T14:33:24.037Z,2.00
2022-08-05T14:35:54.308Z,2.20
2022-08-05T14:38:33.365Z,2.40
2022-08-05T14:41:07.437Z,1.80
2022-08-05T14:43:57.732Z,2.50
2022-08-05T14:46:28.945Z,2.13
2022-08-05T14:49:06.544Z,2.30
2022-08-05T14:51:36.158Z,2.15
2022-08-05T14:54:28.176Z,2.35
2022-08-05T14:56:59.477Z,3.05
2022-08-05T14:59:29.794Z,2.63
2022-08-05T15:02:03.915Z,2.65
2022-08-05T15:04:43.840Z,2.53
2022-08-05T15:08:04.556Z,2.88
2022-08-05T15:10:03.305Z,2.72
2022-08-05T15:12:57.642Z,2.80
2022-08-05T15:15:55.165Z,2.30
2022-08-05T15:18:09.529Z,2.60
2022-08-05T15:20:38.474Z,3.10
2022-08-05T15:23:07.784Z,2.70
2022-08-05T15:25:51.116Z,2.72
2022-08-05T15:28:27.010Z,2.80
2022-08-05T15:30:56.050Z,2.75
2022-08-05T15:34:05.569Z,2.55
2022-08-05T15:36:17.447Z,2.95
2022-08-05T15:40:41.670Z,3.00
2022-08-05T15:41:56.171Z,2.88
2022-08-05T15:44:27.604Z,2.83
2022-08-05T15:46:55.963Z,2.83
2022-08-05T15:49:42.223Z,3.83
2022-08-05T15:52:16.700Z,2.63
2022-08-05T15:54:57.034Z,2.80
2022-08-05T15:57:27.822Z,2.83
2022-08-05T16:00:02.960Z,2.63
2022-08-05T16:02:33.308Z,2.50
2022-08-05T16:05:01.573Z,2.70
2022-08-05T16:07:29.844Z,2.85
2022-08-05T16:09:57.948Z,2.65
2022-08-05T16:12:27.415Z,2.75
2022-08-05T16:14:55.481Z,2.92
2022-08-05T16:17:24.364Z,3.33
2022-08-05T16:20:05.693Z,3.08
2022-08-05T16:22:39.397Z,2.97
2022-08-05T16:25:09.502Z,2.65
2022-08-05T16:28:00.316Z,2.83
2022-08-05T16:30:28.631Z,2.95
2022-08-05T16:32:57.639Z,3.20
2022-08-05T16:35:28.514Z,2.92
2022-08-05T16:38:15.435Z,3.17
2022-08-05T16:40:55.515Z,3.10
2022-08-05T16:43:31.177Z,3.90
2022-08-05T16:46:04.279Z,3.95
2022-08-05T16:48:40.204Z,3.67
2022-08-05T16:51:10.445Z,4.00
2022-08-05T16:54:04.274Z,3.63
2022-08-05T16:56:29.342Z,3.42
2022-08-05T16:59:00.893Z,3.55
2022-08-05T17:01:53.727Z,2.80
2022-08-05T17:04:26.351Z,3.50
2022-08-05T17:07:00.123Z,2.90
2022-08-05T17:09:29.583Z,2.47
2022-08-05T17:11:59.710Z,2.40
2022-08-05T17:14:34.172Z,2.13
2022-08-05T17:17:05.480Z,2.33
2022-08-05T17:19:33.962Z,2.03
2022-08-05T17:22:02.075Z,1.80
2022-08-05T17:24:40.365Z,2.03
2022-08-05T17:27:16.197Z,1.58
2022-08-05T17:29:47.158Z,1.33
2022-08-05T17:32:19.816Z,1.30
2022-08-05T17:34:48.525Z,1.23
2022-08-05T17:37:40.803Z,1.15
2022-08-05T17:40:10.964Z,1.08
2022-08-05T17:42:43.006Z,1.00
2022-08-05T17:45:23.000Z,0.70
2022-08-05T17:47:56.133Z,0.60
2022-08-05T17:52:59.404Z,0.80
2022-08-05T17:55:34.534Z,0.60
2022-08-05T17:58:10.996Z,0.65
2022-08-05T18:00:45.006Z,0.73
2022-08-05T18:03:39.351Z,1.02
2022-08-05T18:06:11.428Z,1.00
2022-08-05T18:08:44.876Z,0.73
2022-08-05T18:11:23.421Z,0.75
2022-08-05T18:13:57.611Z,0.80
2022-08-05T18:16:29.193Z,0.70
2022-08-05T18:18:57.250Z,0.73
2022-08-05T18:21:26.447Z,0.60
2022-08-05T18:23:56.208Z,0.60
2022-08-05T18:26:27.531Z,0.40
2022-08-05T18:28:57.541Z,0.70
2022-08-05T18:31:25.870Z,0.68
2022-08-05T18:34:06.167Z,0.85
2022-08-05T18:36:36.289Z,0.73
2022-08-05T18:39:06.541Z,0.60
2022-08-05T18:41:51.295Z,0.80
2022-08-05T18:44:33.205Z,0.63
2022-08-05T18:47:04.297Z,0.60
2022-08-05T18:49:57.935Z,0.70
2022-08-05T18:52:37.988Z,0.82
2022-08-05T18:55:10.317Z,0.50
2022-08-05T18:57:49.918Z,0.70
2022-08-05T19:00:28.826Z,0.80
2022-08-05T19:03:03.719Z,0.70
2022-08-05T19:06:12.136Z,0.60
2022-08-05T19:08:30.863Z,0.55
2022-08-05T19:11:04.597Z,0.82
2022-08-05T19:13:35.959Z,0.80
2022-08-05T19:16:05.727Z,0.60
2022-08-05T19:18:53.868Z,0.77
2022-08-05T19:21:29.439Z,0.90
2022-08-05T19:24:06.151Z,0.70
2022-08-05T19:26:43.815Z,0.80
2022-08-05T19:29:36.097Z,0.80
2022-08-05T19:32:06.214Z,0.90
2022-08-05T19:34:40.047Z,1.02
2022-08-05T19:37:10.542Z,0.80
2022-08-05T19:39:45.528Z,0.50
2022-08-05T19:42:35.362Z,0.65
2022-08-05T19:45:06.558Z,0.90
2022-08-05T19:47:37.641Z,0.75
2022-08-05T19:50:07.816Z,1.35
2022-08-05T19:52:41.516Z,0.90
2022-08-05T19:56:14.352Z,0.95
2022-08-05T19:58:14.475Z,0.63
2022-08-05T20:00:47.804Z,0.80
2022-08-05T20:03:15.824Z,0.88
2022-08-05T20:05:51.441Z,0.73
2022-08-05T20:08:24.614Z,1.00
2022-08-05T20:10:53.111Z,0.82
2022-08-05T20:13:30.068Z,0.93
2022-08-05T20:16:09.914Z,0.85
2022-08-05T20:18:38.494Z,1.15
2022-08-05T20:21:07.583Z,0.70
2022-08-05T20:23:39.569Z,0.70
2022-08-05T20:26:20.648Z,1.17
2022-08-05T20:28:50.717Z,0.90
2022-08-05T20:31:21.943Z,1.00
2022-08-05T20:33:51.280Z,0.98
2022-08-05T20:36:22.740Z,1.00
2022-08-05T20:38:54.597Z,1.20
2022-08-05T20:41:44.420Z,0.98
2022-08-05T20:44:29.025Z,1.08
2022-08-05T20:47:00.037Z,0.95
2022-08-05T20:49:28.099Z,1.10
2022-08-05T20:51:57.472Z,0.90
2022-08-05T20:54:43.173Z,0.95
2022-08-05T20:57:42.243Z,0.95
2022-08-05T21:00:20.891Z,1.38
2022-08-05T21:02:57.842Z,1.20
2022-08-05T21:05:26.018Z,0.70
2022-08-05T21:08:06.288Z,1.20
2022-08-05T21:10:35.629Z,1.08
2022-08-05T21:13:11.172Z,1.10
2022-08-05T21:15:47.850Z,1.00
2022-08-05T21:18:19.330Z,1.08
2022-08-05T21:20:51.350Z,1.00
2022-08-05T21:23:19.277Z,1.13
2022-08-05T21:25:48.645Z,1.10
2022-08-05T21:28:18.743Z,1.00
2022-08-05T21:30:52.004Z,1.00
2022-08-05T21:33:23.237Z,1.20
2022-08-05T21:35:58.683Z,1.23
2022-08-05T21:38:27.502Z,1.13
2022-08-05T21:40:56.824Z,0.88
2022-08-05T21:43:26.089Z,1.30
2022-08-05T21:45:57.787Z,0.93
2022-08-05T21:48:29.294Z,1.33
2022-08-05T21:50:59.935Z,1.20
2022-08-05T21:53:30.829Z,1.30
2022-08-05T21:56:16.161Z,1.52
2022-08-05T21:58:48.209Z,1.23
2022-08-05T22:01:25.666Z,1.15
2022-08-05T22:03:53.982Z,1.35
2022-08-05T22:06:34.811Z,1.30
2022-08-05T22:09:15.471Z,1.27
2022-08-05T22:11:50.772Z,1.42
2022-08-05T22:14:37.187Z,1.30
2022-08-05T22:17:07.540Z,1.60
2022-08-05T22:20:01.837Z,1.25
2022-08-05T22:22:27.625Z,1.35
2022-08-05T22:25:27.712Z,1.60
2022-08-05T22:28:14.736Z,1.50
2022-08-05T22:30:56.706Z,1.40
2022-08-05T22:33:56.945Z,1.48
2022-08-05T22:36:15.293Z,1.33
2022-08-05T22:38:48.465Z,1.20
2022-08-05T22:44:06.893Z,1.23
2022-08-05T22:46:39.424Z,1.27
2022-08-05T22:49:12.379Z,1.17
2022-08-05T22:52:06.360Z,1.40
2022-08-05T22:54:36.300Z,1.10
2022-08-05T22:57:04.828Z,1.30
2022-08-05T22:59:47.375Z,1.02
2022-08-05T23:02:28.940Z,1.13
2022-08-05T23:04:58.252Z,1.20
2022-08-05T23:07:30.700Z,1.10
2022-08-05T23:10:02.021Z,1.10
2022-08-05T23:12:32.373Z,1.05
2022-08-05T23:15:04.021Z,1.02
2022-08-05T23:18:01.025Z,0.70
2022-08-05T23:20:25.934Z,0.80
2022-08-05T23:22:55.737Z,1.02
2022-08-05T23:25:51.590Z,0.80
2022-08-05T23:28:12.904Z,0.50
2022-08-05T23:30:53.458Z,1.00
2022-08-05T23:34:03.245Z,0.70
2022-08-05T23:36:13.856Z,0.70
2022-08-05T23:38:43.008Z,1.00
2022-08-05T23:41:12.256Z,0.82
2022-08-05T23:44:05.820Z,0.70
2022-08-05T23:46:30.978Z,0.70
2022-08-05T23:48:59.750Z,0.77
2022-08-05T23:51:53.852Z,1.00
2022-08-05T23:54:26.132Z,0.80
2022-08-05T23:56:55.580Z,0.70
2022-08-05T23:59:27.754Z,0.70
